sensor_id;sensor_type;location;lat;lon;timestamp;pressure;altitude;pressure_sealevel;temperature;humidity
74327;BME280;62745;51.060;13.786;2023-08-08T00:01:45;99936.25;;;13.52;100.00
74327;BME280;62745;51.060;13.786;2023-08-08T00:04:10;99936.69;;;13.49;100.00
74327;BME280;62745;51.060;13.786;2023-08-08T00:06:36;99942.22;;;13.54;100.00
74327;BME280;62745;51.060;13.786;2023-08-08T00:09:02;99944.91;;;13.54;100.00
74327;BME280;62745;51.060;13.786;2023-08-08T00:11:28;99968.75;;;13.69;100.00
74327;BME280;62745;51.060;13.786;2023-08-08T00:13:55;99950.03;;;13.63;100.00
74327;BME280;62745;51.060;13.786;2023-08-08T00:16:20;99926.81;;;13.43;100.00
74327;BME280;62745;51.060;13.786;2023-08-08T00:18:45;99927.50;;;13.39;100.00
74327;BME280;62745;51.060;13.786;2023-08-08T00:21:11;99951.69;;;13.57;100.00
74327;BME280;62745;51.060;13.786;2023-08-08T00:23:36;99927.25;;;13.40;100.00
74327;BME280;62745;51.060;13.786;2023-08-08T00:26:01;99939.41;;;13.43;100.00
74327;BME280;62745;51.060;13.786;2023-08-08T00:28:26;99916.75;;;13.39;100.00
74327;BME280;62745;51.060;13.786;2023-08-08T00:30:52;99957.63;;;13.66;100.00
74327;BME280;62745;51.060;13.786;2023-08-08T00:33:17;99915.69;;;13.46;100.00
74327;BME280;62745;51.060;13.786;2023-08-08T00:35:43;99904.44;;;13.31;100.00
74327;BME280;62745;51.060;13.786;2023-08-08T00:38:09;99928.88;;;13.48;100.00
74327;BME280;62745;51.060;13.786;2023-08-08T00:40:35;99912.44;;;13.38;100.00
74327;BME280;62745;51.060;13.786;2023-08-08T00:43:00;99920.03;;;13.41;100.00
74327;BME280;62745;51.060;13.786;2023-08-08T00:45:25;99906.41;;;13.42;99.97
74327;BME280;62745;51.060;13.786;2023-08-08T00:47:51;99922.63;;;13.54;99.98
74327;BME280;62745;51.060;13.786;2023-08-08T00:50:16;99913.63;;;13.42;100.00
74327;BME280;62745;51.060;13.786;2023-08-08T00:52:43;99936.41;;;13.58;100.00
74327;BME280;62745;51.060;13.786;2023-08-08T00:55:09;99924.09;;;13.50;100.00
74327;BME280;62745;51.060;13.786;2023-08-08T00:57:34;99934.19;;;13.54;100.00
74327;BME280;62745;51.060;13.786;2023-08-08T01:00:06;99944.59;;;13.69;100.00
74327;BME280;62745;51.060;13.786;2023-08-08T01:02:32;99918.13;;;13.48;100.00
74327;BME280;62745;51.060;13.786;2023-08-08T01:04:57;99939.91;;;13.58;100.00
74327;BME280;62745;51.060;13.786;2023-08-08T01:10:10;99931.50;;;13.54;99.75
74327;BME280;62745;51.060;13.786;2023-08-08T01:12:45;99917.75;;;13.44;99.45
74327;BME280;62745;51.060;13.786;2023-08-08T01:15:14;99887.34;;;13.25;99.12
74327;BME280;62745;51.060;13.786;2023-08-08T01:17:42;99943.59;;;13.64;98.15
74327;BME280;62745;51.060;13.786;2023-08-08T01:20:09;99906.25;;;13.37;98.04
74327;BME280;62745;51.060;13.786;2023-08-08T01:22:37;99918.13;;;13.48;98.61
74327;BME280;62745;51.060;13.786;2023-08-08T01:25:04;99922.09;;;13.45;98.76
74327;BME280;62745;51.060;13.786;2023-08-08T01:27:30;99916.94;;;13.44;99.69
74327;BME280;62745;51.060;13.786;2023-08-08T01:33:27;99928.50;;;13.44;100.00
74327;BME280;62745;51.060;13.786;2023-08-08T01:36:27;99892.09;;;13.23;100.00
74327;BME280;62745;51.060;13.786;2023-08-08T01:39:51;99916.84;;;13.25;99.82
74327;BME280;62745;51.060;13.786;2023-08-08T01:42:47;99921.97;;;13.34;99.18
74327;BME280;62745;51.060;13.786;2023-08-08T01:45:24;99916.03;;;13.25;99.55
74327;BME280;62745;51.060;13.786;2023-08-08T01:48:25;99890.72;;;13.14;99.53
74327;BME280;62745;51.060;13.786;2023-08-08T01:51:26;99933.50;;;13.34;99.71
74327;BME280;62745;51.060;13.786;2023-08-08T01:53:52;99916.91;;;13.19;99.64
74327;BME280;62745;51.060;13.786;2023-08-08T01:56:17;99923.50;;;13.16;99.66
74327;BME280;62745;51.060;13.786;2023-08-08T01:58:59;99901.09;;;13.04;98.57
74327;BME280;62745;51.060;13.786;2023-08-08T02:01:33;99901.31;;;13.03;99.04
74327;BME280;62745;51.060;13.786;2023-08-08T02:04:07;99935.47;;;13.20;98.47
74327;BME280;62745;51.060;13.786;2023-08-08T02:10:04;99925.16;;;13.17;98.32
74327;BME280;62745;51.060;13.786;2023-08-08T02:13:04;99905.03;;;13.02;97.76
74327;BME280;62745;51.060;13.786;2023-08-08T02:16:06;99908.16;;;12.99;98.91
74327;BME280;62745;51.060;13.786;2023-08-08T02:18:44;99936.75;;;13.11;98.98
74327;BME280;62745;51.060;13.786;2023-08-08T02:21:30;99945.41;;;13.13;97.83
74327;BME280;62745;51.060;13.786;2023-08-08T02:24:05;99910.22;;;12.97;100.00
74327;BME280;62745;51.060;13.786;2023-08-08T02:26:31;99919.69;;;12.99;98.46
74327;BME280;62745;51.060;13.786;2023-08-08T02:32:40;99933.66;;;13.08;99.47
74327;BME280;62745;51.060;13.786;2023-08-08T02:35:47;99920.13;;;12.96;98.76
74327;BME280;62745;51.060;13.786;2023-08-08T02:41:51;99915.00;;;12.88;98.36
74327;BME280;62745;51.060;13.786;2023-08-08T02:45:03;99896.94;;;12.77;100.00
74327;BME280;62745;51.060;13.786;2023-08-08T02:47:50;99896.75;;;12.72;98.94
74327;BME280;62745;51.060;13.786;2023-08-08T02:50:36;99897.84;;;12.57;100.00
74327;BME280;62745;51.060;13.786;2023-08-08T02:53:37;99902.00;;;12.60;99.06
74327;BME280;62745;51.060;13.786;2023-08-08T02:59:53;99898.06;;;12.62;98.95
74327;BME280;62745;51.060;13.786;2023-08-08T03:02:19;99913.53;;;12.60;99.28
74327;BME280;62745;51.060;13.786;2023-08-08T03:08:24;99933.63;;;12.76;99.92
74327;BME280;62745;51.060;13.786;2023-08-08T03:13:49;99908.19;;;12.54;100.00
74327;BME280;62745;51.060;13.786;2023-08-08T03:16:14;99943.97;;;12.73;99.35
74327;BME280;62745;51.060;13.786;2023-08-08T03:18:42;99936.34;;;12.70;99.67
74327;BME280;62745;51.060;13.786;2023-08-08T03:21:07;99922.78;;;12.58;99.75
74327;BME280;62745;51.060;13.786;2023-08-08T03:24:01;99910.50;;;12.44;99.14
74327;BME280;62745;51.060;13.786;2023-08-08T03:27:02;99931.03;;;12.63;99.89
74327;BME280;62745;51.060;13.786;2023-08-08T03:36:22;99918.06;;;12.53;100.00
74327;BME280;62745;51.060;13.786;2023-08-08T03:38:47;99894.09;;;12.27;100.00
74327;BME280;62745;51.060;13.786;2023-08-08T03:41:14;99902.91;;;12.34;99.92
74327;BME280;62745;51.060;13.786;2023-08-08T03:50:49;99910.13;;;12.33;99.45
74327;BME280;62745;51.060;13.786;2023-08-08T03:53:32;99907.28;;;12.28;99.71
74327;BME280;62745;51.060;13.786;2023-08-08T03:59:26;99899.41;;;12.33;100.00
74327;BME280;62745;51.060;13.786;2023-08-08T04:05:13;99883.34;;;12.33;99.67
74327;BME280;62745;51.060;13.786;2023-08-08T04:08:03;99895.88;;;12.46;100.00
74327;BME280;62745;51.060;13.786;2023-08-08T04:10:37;99893.41;;;12.38;99.24
74327;BME280;62745;51.060;13.786;2023-08-08T04:13:29;99926.28;;;12.65;99.23
74327;BME280;62745;51.060;13.786;2023-08-08T04:16:15;99928.47;;;12.75;100.00
74327;BME280;62745;51.060;13.786;2023-08-08T04:21:54;99888.16;;;12.56;98.83
74327;BME280;62745;51.060;13.786;2023-08-08T04:24:20;99888.75;;;12.65;98.46
74327;BME280;62745;51.060;13.786;2023-08-08T04:30:22;99890.44;;;12.91;96.68
74327;BME280;62745;51.060;13.786;2023-08-08T04:39:32;99898.13;;;13.19;96.34
74327;BME280;62745;51.060;13.786;2023-08-08T04:41:57;99920.34;;;13.26;96.15
74327;BME280;62745;51.060;13.786;2023-08-08T04:44:22;99923.44;;;13.30;95.92
74327;BME280;62745;51.060;13.786;2023-08-08T04:46:48;99930.84;;;13.34;97.34
74327;BME280;62745;51.060;13.786;2023-08-08T04:49:13;99936.09;;;13.47;97.51
74327;BME280;62745;51.060;13.786;2023-08-08T04:51:38;99938.59;;;13.42;95.44
74327;BME280;62745;51.060;13.786;2023-08-08T04:54:04;99935.66;;;13.50;97.74
74327;BME280;62745;51.060;13.786;2023-08-08T04:56:29;99937.00;;;13.60;97.93
74327;BME280;62745;51.060;13.786;2023-08-08T04:58:54;99941.41;;;13.54;96.17
74327;BME280;62745;51.060;13.786;2023-08-08T05:01:20;99942.81;;;13.57;96.76
74327;BME280;62745;51.060;13.786;2023-08-08T05:03:45;99937.84;;;13.60;96.51
74327;BME280;62745;51.060;13.786;2023-08-08T05:06:13;99942.59;;;13.58;96.38
74327;BME280;62745;51.060;13.786;2023-08-08T05:08:38;99947.13;;;13.64;97.79
74327;BME280;62745;51.060;13.786;2023-08-08T05:11:03;99936.31;;;13.71;95.80
74327;BME280;62745;51.060;13.786;2023-08-08T05:13:29;99933.03;;;13.69;94.93
74327;BME280;62745;51.060;13.786;2023-08-08T05:15:54;99921.34;;;13.81;95.58
74327;BME280;62745;51.060;13.786;2023-08-08T05:18:19;99926.94;;;13.80;94.82
74327;BME280;62745;51.060;13.786;2023-08-08T05:20:45;99927.84;;;13.92;95.78
74327;BME280;62745;51.060;13.786;2023-08-08T05:23:10;99924.66;;;14.02;93.29
74327;BME280;62745;51.060;13.786;2023-08-08T05:25:36;99920.25;;;14.07;93.31
74327;BME280;62745;51.060;13.786;2023-08-08T05:28:02;99926.16;;;14.16;91.32
74327;BME280;62745;51.060;13.786;2023-08-08T05:30:27;99924.16;;;14.30;91.61
74327;BME280;62745;51.060;13.786;2023-08-08T05:32:53;99919.03;;;14.47;91.36
74327;BME280;62745;51.060;13.786;2023-08-08T05:35:18;99915.94;;;14.61;90.74
74327;BME280;62745;51.060;13.786;2023-08-08T05:37:43;99915.25;;;14.66;90.54
74327;BME280;62745;51.060;13.786;2023-08-08T05:40:09;99925.03;;;14.79;89.52
74327;BME280;62745;51.060;13.786;2023-08-08T05:42:35;99921.09;;;14.93;89.48
74327;BME280;62745;51.060;13.786;2023-08-08T05:45:00;99916.44;;;15.00;88.76
74327;BME280;62745;51.060;13.786;2023-08-08T05:47:25;99923.81;;;15.04;86.26
74327;BME280;62745;51.060;13.786;2023-08-08T05:49:51;99925.81;;;15.09;87.71
74327;BME280;62745;51.060;13.786;2023-08-08T05:52:16;99920.81;;;15.13;86.23
74327;BME280;62745;51.060;13.786;2023-08-08T05:54:41;99922.88;;;15.11;87.00
74327;BME280;62745;51.060;13.786;2023-08-08T05:57:07;99929.00;;;15.18;88.52
74327;BME280;62745;51.060;13.786;2023-08-08T05:59:32;99926.16;;;15.01;85.84
74327;BME280;62745;51.060;13.786;2023-08-08T06:01:58;99914.69;;;15.05;85.85
74327;BME280;62745;51.060;13.786;2023-08-08T06:04:24;99917.03;;;15.02;86.63
74327;BME280;62745;51.060;13.786;2023-08-08T06:06:49;99921.72;;;15.07;85.56
74327;BME280;62745;51.060;13.786;2023-08-08T06:09:15;99934.44;;;14.99;86.96
74327;BME280;62745;51.060;13.786;2023-08-08T06:11:40;99926.63;;;15.10;86.88
74327;BME280;62745;51.060;13.786;2023-08-08T06:14:05;99929.44;;;15.03;87.01
74327;BME280;62745;51.060;13.786;2023-08-08T06:16:31;99932.88;;;14.92;86.55
74327;BME280;62745;51.060;13.786;2023-08-08T06:18:56;99935.81;;;14.90;86.88
74327;BME280;62745;51.060;13.786;2023-08-08T06:21:21;99943.81;;;14.97;85.65
74327;BME280;62745;51.060;13.786;2023-08-08T06:23:47;99944.75;;;15.02;85.38
74327;BME280;62745;51.060;13.786;2023-08-08T06:26:13;99932.66;;;14.93;84.77
74327;BME280;62745;51.060;13.786;2023-08-08T06:28:39;99946.09;;;14.93;86.39
74327;BME280;62745;51.060;13.786;2023-08-08T06:31:04;99940.97;;;14.92;85.50
74327;BME280;62745;51.060;13.786;2023-08-08T06:33:32;99939.09;;;14.92;84.74
74327;BME280;62745;51.060;13.786;2023-08-08T06:35:57;99941.13;;;14.97;85.12
74327;BME280;62745;51.060;13.786;2023-08-08T06:38:23;99936.56;;;14.97;86.23
74327;BME280;62745;51.060;13.786;2023-08-08T06:40:48;99932.13;;;15.03;86.70
74327;BME280;62745;51.060;13.786;2023-08-08T06:43:14;99936.69;;;15.02;85.40
74327;BME280;62745;51.060;13.786;2023-08-08T06:45:39;99943.00;;;14.96;83.79
74327;BME280;62745;51.060;13.786;2023-08-08T06:48:05;99944.75;;;15.02;85.11
74327;BME280;62745;51.060;13.786;2023-08-08T06:50:30;99935.63;;;15.03;83.72
74327;BME280;62745;51.060;13.786;2023-08-08T06:52:55;99939.84;;;15.11;84.39
74327;BME280;62745;51.060;13.786;2023-08-08T06:55:21;99939.41;;;15.14;84.96
74327;BME280;62745;51.060;13.786;2023-08-08T06:57:46;99930.28;;;15.15;84.30
74327;BME280;62745;51.060;13.786;2023-08-08T07:00:12;99935.09;;;15.13;85.58
74327;BME280;62745;51.060;13.786;2023-08-08T07:02:38;99927.75;;;15.32;83.84
74327;BME280;62745;51.060;13.786;2023-08-08T07:05:04;99935.09;;;15.13;82.72
74327;BME280;62745;51.060;13.786;2023-08-08T07:07:30;99933.81;;;15.16;83.60
74327;BME280;62745;51.060;13.786;2023-08-08T07:09:58;99928.31;;;15.22;83.67
74327;BME280;62745;51.060;13.786;2023-08-08T07:12:23;99934.50;;;15.23;83.44
74327;BME280;62745;51.060;13.786;2023-08-08T07:14:48;99931.50;;;15.31;83.23
74327;BME280;62745;51.060;13.786;2023-08-08T07:17:13;99934.75;;;15.21;84.20
74327;BME280;62745;51.060;13.786;2023-08-08T07:19:39;99925.84;;;15.21;84.23
74327;BME280;62745;51.060;13.786;2023-08-08T07:22:06;99925.97;;;15.26;83.63
74327;BME280;62745;51.060;13.786;2023-08-08T07:24:31;99911.03;;;15.30;84.43
74327;BME280;62745;51.060;13.786;2023-08-08T07:26:58;99904.50;;;15.49;81.22
74327;BME280;62745;51.060;13.786;2023-08-08T07:29:23;99897.09;;;15.33;81.70
74327;BME280;62745;51.060;13.786;2023-08-08T07:31:50;99900.97;;;15.37;83.34
74327;BME280;62745;51.060;13.786;2023-08-08T07:34:15;99916.06;;;15.38;83.39
74327;BME280;62745;51.060;13.786;2023-08-08T07:36:41;99910.59;;;15.56;83.76
74327;BME280;62745;51.060;13.786;2023-08-08T07:39:06;99926.44;;;15.64;82.85
74327;BME280;62745;51.060;13.786;2023-08-08T07:41:31;99928.16;;;15.59;83.63
74327;BME280;62745;51.060;13.786;2023-08-08T07:43:57;99924.69;;;15.70;83.56
74327;BME280;62745;51.060;13.786;2023-08-08T07:46:22;99921.63;;;15.67;83.53
74327;BME280;62745;51.060;13.786;2023-08-08T07:48:48;99924.69;;;15.82;84.09
74327;BME280;62745;51.060;13.786;2023-08-08T07:51:13;99923.97;;;15.75;83.02
74327;BME280;62745;51.060;13.786;2023-08-08T07:53:38;99913.09;;;15.81;83.14
74327;BME280;62745;51.060;13.786;2023-08-08T07:56:04;99934.63;;;15.70;84.32
74327;BME280;62745;51.060;13.786;2023-08-08T07:58:32;99922.56;;;15.95;84.26
74327;BME280;62745;51.060;13.786;2023-08-08T08:00:57;99933.66;;;16.22;85.48
74327;BME280;62745;51.060;13.786;2023-08-08T08:03:24;99922.44;;;15.90;82.59
74327;BME280;62745;51.060;13.786;2023-08-08T08:05:49;99931.69;;;16.06;83.98
74327;BME280;62745;51.060;13.786;2023-08-08T08:08:14;99923.50;;;15.89;82.62
74327;BME280;62745;51.060;13.786;2023-08-08T08:10:40;99928.66;;;16.03;83.06
74327;BME280;62745;51.060;13.786;2023-08-08T08:13:05;99920.09;;;16.06;81.29
74327;BME280;62745;51.060;13.786;2023-08-08T08:15:30;99932.50;;;16.18;83.25
74327;BME280;62745;51.060;13.786;2023-08-08T08:17:56;99939.03;;;16.34;81.92
74327;BME280;62745;51.060;13.786;2023-08-08T08:20:21;99926.28;;;16.30;81.93
74327;BME280;62745;51.060;13.786;2023-08-08T08:22:46;99933.53;;;16.29;82.78
74327;BME280;62745;51.060;13.786;2023-08-08T08:25:13;99913.38;;;16.32;80.96
74327;BME280;62745;51.060;13.786;2023-08-08T08:27:38;99926.63;;;16.33;81.31
74327;BME280;62745;51.060;13.786;2023-08-08T08:30:05;99920.53;;;16.78;81.93
74327;BME280;62745;51.060;13.786;2023-08-08T08:32:33;99921.41;;;16.55;80.11
74327;BME280;62745;51.060;13.786;2023-08-08T08:35:00;99918.56;;;16.62;79.58
74327;BME280;62745;51.060;13.786;2023-08-08T08:37:25;99909.50;;;16.79;79.81
74327;BME280;62745;51.060;13.786;2023-08-08T08:39:51;99916.00;;;16.95;77.68
74327;BME280;62745;51.060;13.786;2023-08-08T08:42:16;99923.44;;;16.88;77.50
74327;BME280;62745;51.060;13.786;2023-08-08T08:44:43;99903.34;;;16.67;75.95
74327;BME280;62745;51.060;13.786;2023-08-08T08:47:11;99913.03;;;16.80;76.55
74327;BME280;62745;51.060;13.786;2023-08-08T08:49:38;99896.41;;;16.60;75.33
74327;BME280;62745;51.060;13.786;2023-08-08T08:52:04;99913.16;;;16.62;76.09
74327;BME280;62745;51.060;13.786;2023-08-08T08:54:31;99919.25;;;16.80;75.67
74327;BME280;62745;51.060;13.786;2023-08-08T08:56:57;99910.47;;;17.02;76.03
74327;BME280;62745;51.060;13.786;2023-08-08T08:59:23;99911.44;;;17.12;74.99
74327;BME280;62745;51.060;13.786;2023-08-08T09:01:50;99910.50;;;17.19;74.86
74327;BME280;62745;51.060;13.786;2023-08-08T09:04:18;99918.13;;;16.93;75.33
74327;BME280;62745;51.060;13.786;2023-08-08T09:06:44;99918.34;;;16.92;75.31
74327;BME280;62745;51.060;13.786;2023-08-08T09:09:09;99921.50;;;16.72;75.50
74327;BME280;62745;51.060;13.786;2023-08-08T09:11:35;99917.31;;;16.52;75.90
74327;BME280;62745;51.060;13.786;2023-08-08T09:14:00;99924.13;;;16.43;76.98
74327;BME280;62745;51.060;13.786;2023-08-08T09:16:27;99943.00;;;16.43;77.59
74327;BME280;62745;51.060;13.786;2023-08-08T09:18:52;99916.50;;;16.52;79.28
74327;BME280;62745;51.060;13.786;2023-08-08T09:21:18;99922.88;;;16.34;78.47
74327;BME280;62745;51.060;13.786;2023-08-08T09:23:43;99928.03;;;16.36;79.85
74327;BME280;62745;51.060;13.786;2023-08-08T09:26:09;99923.94;;;16.33;79.64
74327;BME280;62745;51.060;13.786;2023-08-08T09:28:34;99922.88;;;16.34;80.22
74327;BME280;62745;51.060;13.786;2023-08-08T09:31:00;99924.41;;;16.30;80.50
74327;BME280;62745;51.060;13.786;2023-08-08T09:33:29;99907.06;;;16.26;81.05
74327;BME280;62745;51.060;13.786;2023-08-08T09:35:55;99930.38;;;16.32;81.92
74327;BME280;62745;51.060;13.786;2023-08-08T09:38:20;99920.78;;;16.24;81.32
74327;BME280;62745;51.060;13.786;2023-08-08T09:40:46;99931.78;;;16.23;81.97
74327;BME280;62745;51.060;13.786;2023-08-08T09:43:12;99920.44;;;16.21;81.69
74327;BME280;62745;51.060;13.786;2023-08-08T09:45:39;99925.09;;;16.25;81.12
74327;BME280;62745;51.060;13.786;2023-08-08T09:48:07;99926.03;;;16.31;82.19
74327;BME280;62745;51.060;13.786;2023-08-08T09:50:35;99919.59;;;16.32;80.75
74327;BME280;62745;51.060;13.786;2023-08-08T09:53:02;99910.78;;;16.37;80.37
74327;BME280;62745;51.060;13.786;2023-08-08T09:55:28;99924.75;;;16.34;79.47
74327;BME280;62745;51.060;13.786;2023-08-08T09:57:54;99906.31;;;16.42;78.55
74327;BME280;62745;51.060;13.786;2023-08-08T10:00:20;99921.50;;;16.60;78.43
74327;BME280;62745;51.060;13.786;2023-08-08T10:02:46;99911.19;;;16.69;77.32
74327;BME280;62745;51.060;13.786;2023-08-08T10:05:13;99917.84;;;16.66;77.77
74327;BME280;62745;51.060;13.786;2023-08-08T10:07:40;99918.09;;;16.65;76.97
74327;BME280;62745;51.060;13.786;2023-08-08T10:10:07;99926.41;;;16.75;76.76
74327;BME280;62745;51.060;13.786;2023-08-08T10:12:35;99915.25;;;16.83;77.21
74327;BME280;62745;51.060;13.786;2023-08-08T10:15:02;99917.78;;;16.90;76.17
74327;BME280;62745;51.060;13.786;2023-08-08T10:17:35;99918.81;;;17.00;76.84
74327;BME280;62745;51.060;13.786;2023-08-08T10:20:00;99940.06;;;16.97;74.86
74327;BME280;62745;51.060;13.786;2023-08-08T10:22:34;99921.00;;;17.03;75.00
74327;BME280;62745;51.060;13.786;2023-08-08T10:25:03;99918.97;;;17.10;73.67
74327;BME280;62745;51.060;13.786;2023-08-08T10:27:36;99934.25;;;17.05;72.19
74327;BME280;62745;51.060;13.786;2023-08-08T10:30:10;99917.28;;;17.21;71.99
74327;BME280;62745;51.060;13.786;2023-08-08T10:32:42;99908.38;;;17.37;73.15
74327;BME280;62745;51.060;13.786;2023-08-08T10:35:09;99899.63;;;17.30;71.97
74327;BME280;62745;51.060;13.786;2023-08-08T10:37:35;99885.53;;;17.28;70.80
74327;BME280;62745;51.060;13.786;2023-08-08T10:40:02;99896.59;;;17.43;70.36
74327;BME280;62745;51.060;13.786;2023-08-08T10:42:31;99894.06;;;17.54;70.98
74327;BME280;62745;51.060;13.786;2023-08-08T10:44:59;99899.69;;;17.35;70.95
74327;BME280;62745;51.060;13.786;2023-08-08T10:47:32;99893.25;;;17.36;70.95
74327;BME280;62745;51.060;13.786;2023-08-08T10:50:15;99877.84;;;17.54;72.30
74327;BME280;62745;51.060;13.786;2023-08-08T10:55:21;99880.72;;;17.64;70.05
74327;BME280;62745;51.060;13.786;2023-08-08T10:57:55;99883.97;;;17.66;68.97
74327;BME280;62745;51.060;13.786;2023-08-08T11:00:24;99857.84;;;17.88;70.18
74327;BME280;62745;51.060;13.786;2023-08-08T11:02:51;99871.56;;;17.82;68.36
74327;BME280;62745;51.060;13.786;2023-08-08T11:05:16;99874.00;;;17.83;67.89
74327;BME280;62745;51.060;13.786;2023-08-08T11:07:42;99872.75;;;17.91;67.74
74327;BME280;62745;51.060;13.786;2023-08-08T11:10:08;99862.50;;;17.93;68.61
74327;BME280;62745;51.060;13.786;2023-08-08T11:12:33;99854.13;;;17.94;65.32
74327;BME280;62745;51.060;13.786;2023-08-08T11:14:59;99867.28;;;17.86;67.39
74327;BME280;62745;51.060;13.786;2023-08-08T11:17:24;99858.31;;;18.02;67.04
74327;BME280;62745;51.060;13.786;2023-08-08T11:19:50;99862.75;;;18.13;67.99
74327;BME280;62745;51.060;13.786;2023-08-08T11:22:15;99860.31;;;18.33;67.15
74327;BME280;62745;51.060;13.786;2023-08-08T11:24:41;99845.91;;;18.28;65.57
74327;BME280;62745;51.060;13.786;2023-08-08T11:27:06;99849.84;;;18.42;64.91
74327;BME280;62745;51.060;13.786;2023-08-08T11:29:31;99850.13;;;18.41;64.43
74327;BME280;62745;51.060;13.786;2023-08-08T11:31:59;99832.31;;;18.45;64.09
74327;BME280;62745;51.060;13.786;2023-08-08T11:34:25;99844.31;;;18.54;63.58
74327;BME280;62745;51.060;13.786;2023-08-08T11:36:51;99835.13;;;18.55;61.85
74327;BME280;62745;51.060;13.786;2023-08-08T11:39:17;99857.47;;;18.45;62.46
74327;BME280;62745;51.060;13.786;2023-08-08T11:41:42;99829.59;;;18.67;63.23
74327;BME280;62745;51.060;13.786;2023-08-08T11:44:08;99825.50;;;18.91;62.95
74327;BME280;62745;51.060;13.786;2023-08-08T11:46:33;99826.00;;;19.15;63.79
74327;BME280;62745;51.060;13.786;2023-08-08T11:49:07;99832.28;;;19.26;59.93
74327;BME280;62745;51.060;13.786;2023-08-08T11:51:34;99817.44;;;19.70;58.46
74327;BME280;62745;51.060;13.786;2023-08-08T11:54:01;99809.09;;;20.45;56.99
74327;BME280;62745;51.060;13.786;2023-08-08T11:56:26;99802.59;;;20.56;56.87
74327;BME280;62745;51.060;13.786;2023-08-08T11:58:54;99797.19;;;20.61;54.64
74327;BME280;62745;51.060;13.786;2023-08-08T12:01:22;99799.81;;;20.40;53.61
74327;BME280;62745;51.060;13.786;2023-08-08T12:03:48;99796.69;;;20.84;54.07
74327;BME280;62745;51.060;13.786;2023-08-08T12:06:15;99789.84;;;20.51;55.00
74327;BME280;62745;51.060;13.786;2023-08-08T12:08:45;99787.13;;;20.61;54.20
74327;BME280;62745;51.060;13.786;2023-08-08T12:11:12;99779.28;;;20.55;54.31
74327;BME280;62745;51.060;13.786;2023-08-08T12:13:39;99780.56;;;20.37;54.69
74327;BME280;62745;51.060;13.786;2023-08-08T12:16:06;99771.56;;;20.21;54.06
74327;BME280;62745;51.060;13.786;2023-08-08T12:18:32;99776.16;;;20.16;51.46
74327;BME280;62745;51.060;13.786;2023-08-08T12:20:57;99769.50;;;19.81;52.34
74327;BME280;62745;51.060;13.786;2023-08-08T12:23:23;99774.63;;;19.67;54.56
74327;BME280;62745;51.060;13.786;2023-08-08T12:25:48;99772.75;;;19.73;53.00
74327;BME280;62745;51.060;13.786;2023-08-08T12:28:13;99774.00;;;19.55;54.59
74327;BME280;62745;51.060;13.786;2023-08-08T12:30:39;99771.09;;;19.72;54.62
74327;BME280;62745;51.060;13.786;2023-08-08T12:33:04;99769.47;;;19.71;55.14
74327;BME280;62745;51.060;13.786;2023-08-08T12:35:29;99764.91;;;19.81;55.39
74327;BME280;62745;51.060;13.786;2023-08-08T12:37:55;99768.41;;;19.77;55.89
74327;BME280;62745;51.060;13.786;2023-08-08T12:40:20;99770.84;;;19.73;55.10
74327;BME280;62745;51.060;13.786;2023-08-08T12:42:45;99758.03;;;19.59;55.98
74327;BME280;62745;51.060;13.786;2023-08-08T12:45:11;99760.75;;;19.59;56.32
74327;BME280;62745;51.060;13.786;2023-08-08T12:47:37;99766.94;;;19.54;57.39
74327;BME280;62745;51.060;13.786;2023-08-08T12:50:06;99769.13;;;19.57;56.36
74327;BME280;62745;51.060;13.786;2023-08-08T12:52:31;99774.38;;;19.74;57.10
74327;BME280;62745;51.060;13.786;2023-08-08T12:54:57;99775.31;;;20.05;55.15
74327;BME280;62745;51.060;13.786;2023-08-08T12:57:22;99763.19;;;20.38;56.13
74327;BME280;62745;51.060;13.786;2023-08-08T12:59:48;99755.28;;;21.69;57.68
74327;BME280;62745;51.060;13.786;2023-08-08T13:02:13;99746.16;;;22.04;56.82
74327;BME280;62745;51.060;13.786;2023-08-08T13:04:38;99740.00;;;22.32;54.83
74327;BME280;62745;51.060;13.786;2023-08-08T13:07:04;99748.34;;;21.97;55.85
74327;BME280;62745;51.060;13.786;2023-08-08T13:09:30;99738.44;;;21.61;56.83
74327;BME280;62745;51.060;13.786;2023-08-08T13:11:55;99756.41;;;21.47;58.15
74327;BME280;62745;51.060;13.786;2023-08-08T13:14:20;99752.34;;;21.45;59.38
74327;BME280;62745;51.060;13.786;2023-08-08T13:16:46;99766.00;;;21.24;59.35
74327;BME280;62745;51.060;13.786;2023-08-08T13:19:11;99755.66;;;20.81;58.77
74327;BME280;62745;51.060;13.786;2023-08-08T13:21:36;99751.31;;;20.80;60.33
74327;BME280;62745;51.060;13.786;2023-08-08T13:24:02;99755.94;;;20.89;60.61
74327;BME280;62745;51.060;13.786;2023-08-08T13:26:29;99748.84;;;20.98;62.18
74327;BME280;62745;51.060;13.786;2023-08-08T13:28:54;99729.03;;;21.98;60.20
74327;BME280;62745;51.060;13.786;2023-08-08T13:31:19;99743.97;;;22.11;60.54
74327;BME280;62745;51.060;13.786;2023-08-08T13:33:45;99738.69;;;21.65;59.60
74327;BME280;62745;51.060;13.786;2023-08-08T13:36:10;99735.53;;;21.27;61.40
74327;BME280;62745;51.060;13.786;2023-08-08T13:38:35;99752.41;;;20.94;59.74
74327;BME280;62745;51.060;13.786;2023-08-08T13:41:00;99756.69;;;20.34;60.10
74327;BME280;62745;51.060;13.786;2023-08-08T13:43:26;99774.50;;;20.04;62.88
74327;BME280;62745;51.060;13.786;2023-08-08T13:45:51;99770.22;;;20.24;72.73
74327;BME280;62745;51.060;13.786;2023-08-08T13:48:17;99755.81;;;19.50;74.67
74327;BME280;62745;51.060;13.786;2023-08-08T13:50:42;99752.81;;;19.10;76.10
74327;BME280;62745;51.060;13.786;2023-08-08T13:53:07;99750.56;;;19.86;73.61
74327;BME280;62745;51.060;13.786;2023-08-08T13:55:33;99744.44;;;20.16;67.72
74327;BME280;62745;51.060;13.786;2023-08-08T13:58:04;99743.81;;;19.94;67.21